Terminal Aerodrome Forecast
Issued by NWS Caribou, ME

Home | Current Version | Previous Version | Text Only | Print | Product List | Glossary On
Versions: 1 2 3 4 5 6 7 8 9 10 11 12 13 14 15 16 17 18 19
000
FTUS41 KCAR 231500 AAA
TAFCAR
TAF AMD
KCAR 231518Z 2315/2412 04012KT P6SM -RA OVC035
     FM232200 04015G25KT P6SM -RA OVC015
     FM240300 04015G22KT 4SM RA OVC015
     FM240900 02013G22KT 2SM +RA OVC007=

USA.gov is the U.S. government's official web portal to all federal, state and local government web resources and services.